Time;durP1;ratioP1;P1;durP2;ratioP2;P2;SDS_P1;SDS_P2;PMS_P1;PMS_P2;Temp;Humidity;BMP_temperature;BMP_pressure;BME280_temperature;BME280_humidity;BME280_pressure;Samples;Min_cycle;Max_cycle;Signal;HPM_P1;HPM_P2
2023/08/12 00:00:32;;;;;;;8.50;5.20;;;28.50;62.30;;;;;;4992433;28;20478;-83
2023/08/12 00:03:00;;;;;;;5.53;4.30;;;28.80;61.00;;;;;;4998151;28;20473;-83
2023/08/12 00:05:29;;;;;;;8.13;4.40;;;29.00;60.60;;;;;;4997487;28;20449;-83
2023/08/12 00:07:57;;;;;;;7.00;3.87;;;29.10;59.20;;;;;;4998355;28;20871;-83
2023/08/12 00:10:25;;;;;;;9.93;4.80;;;29.30;58.80;;;;;;4992412;28;20455;-83
2023/08/12 00:12:54;;;;;;;10.83;4.53;;;29.40;58.20;;;;;;4995691;28;20447;-84
2023/08/12 00:15:22;;;;;;;4.63;3.60;;;29.50;57.80;;;;;;4998126;28;20488;-83
2023/08/12 00:17:50;;;;;;;8.17;4.20;;;29.50;57.30;;;;;;4997786;28;20432;-84
2023/08/12 00:20:18;;;;;;;10.80;4.33;;;29.60;57.00;;;;;;4997614;28;20472;-84
2023/08/12 00:22:46;;;;;;;5.00;4.00;;;29.70;56.70;;;;;;4997234;28;20452;-83
2023/08/12 00:25:14;;;;;;;6.00;3.50;;;29.70;56.40;;;;;;5007853;28;20540;-82
2023/08/12 00:27:42;;;;;;;9.43;4.03;;;29.80;56.20;;;;;;5003790;28;20456;-83
2023/08/12 00:30:12;;;;;;;4.20;3.80;;;29.80;55.80;;;;;;5003704;28;20548;-83
2023/08/12 00:32:40;;;;;;;5.63;3.30;;;29.90;55.70;;;;;;5003923;28;20508;-83
2023/08/12 00:35:09;;;;;;;5.43;3.80;;;29.90;55.50;;;;;;4999134;28;20586;-82
2023/08/12 00:37:37;;;;;;;4.20;3.43;;;29.90;55.40;;;;;;5003964;28;20485;-82
2023/08/12 00:40:06;;;;;;;5.10;4.03;;;29.90;55.10;;;;;;5003947;28;20429;-83
2023/08/12 00:42:34;;;;;;;4.80;3.60;;;30.00;54.90;;;;;;5003047;28;20452;-82
2023/08/12 00:45:03;;;;;;;8.10;3.87;;;30.00;54.90;;;;;;5007192;28;20471;-83
2023/08/12 00:47:33;;;;;;;4.90;3.80;;;30.00;54.70;;;;;;5002130;28;20449;-83
2023/08/12 00:50:01;;;;;;;9.10;3.60;;;30.00;54.60;;;;;;5007751;28;20471;-82
2023/08/12 00:52:29;;;;;;;5.47;3.83;;;30.00;54.50;;;;;;5009126;28;20461;-82
2023/08/12 00:54:57;;;;;;;4.80;3.97;;;30.00;54.40;;;;;;5008280;28;20559;-82
2023/08/12 00:57:25;;;;;;;5.83;5.23;;;30.00;54.20;;;;;;5007543;28;20484;-82
2023/08/12 00:59:54;;;;;;;7.83;4.50;;;30.00;54.70;;;;;;5005315;28;20480;-82
2023/08/12 01:02:22;;;;;;;4.90;4.10;;;30.00;54.00;;;;;;5006282;28;20492;-83
2023/08/12 01:04:51;;;;;;;7.23;4.50;;;30.00;53.90;;;;;;5005329;28;20457;-82
2023/08/12 01:07:20;;;;;;;5.40;4.37;;;30.00;53.90;;;;;;5002979;28;20449;-83
2023/08/12 01:09:48;;;;;;;4.17;3.83;;;30.00;53.80;;;;;;5005273;28;20502;-83
2023/08/12 01:12:18;;;;;;;4.33;3.93;;;30.00;53.70;;;;;;4997131;28;20471;-83
2023/08/12 01:14:48;;;;;;;4.20;3.80;;;30.00;53.70;;;;;;4996369;28;20511;-83
2023/08/12 01:17:16;;;;;;;5.57;3.87;;;30.00;53.60;;;;;;4997315;28;20449;-83
2023/08/12 01:19:44;;;;;;;4.67;3.90;;;30.00;53.70;;;;;;4996205;28;20457;-83
2023/08/12 01:22:14;;;;;;;6.60;4.47;;;30.00;53.50;;;;;;4998059;28;20507;-83
2023/08/12 01:24:44;;;;;;;5.30;4.20;;;30.00;53.50;;;;;;4998548;28;20433;-83
2023/08/12 01:27:13;;;;;;;6.80;4.10;;;30.00;53.60;;;;;;4998556;28;20507;-83
2023/08/12 01:29:43;;;;;;;4.00;3.70;;;30.00;53.70;;;;;;4997555;28;20508;-83
2023/08/12 01:32:23;;;;;;;5.60;4.10;;;30.00;53.60;;;;;;4996845;28;20477;-83
2023/08/12 01:34:57;;;;;;;4.70;4.07;;;29.90;53.60;;;;;;4996480;28;20484;-83
2023/08/12 01:37:26;;;;;;;6.47;4.00;;;29.90;53.70;;;;;;4995675;28;20522;-83
2023/08/12 01:39:55;;;;;;;4.40;4.00;;;29.90;53.70;;;;;;5001918;28;20449;-82
2023/08/12 01:42:24;;;;;;;6.07;4.33;;;29.80;53.70;;;;;;5002052;28;20489;-82
2023/08/12 01:44:52;;;;;;;6.13;4.70;;;29.80;53.80;;;;;;4997788;28;20408;-83
2023/08/12 01:47:20;;;;;;;4.47;3.80;;;29.80;53.80;;;;;;4997253;28;20470;-81
2023/08/12 01:49:48;;;;;;;4.67;3.57;;;29.80;53.80;;;;;;4996495;28;20515;-82
2023/08/12 01:52:16;;;;;;;6.60;3.97;;;29.80;53.80;;;;;;4993024;28;20523;-83
2023/08/12 01:54:44;;;;;;;7.20;4.17;;;29.70;53.80;;;;;;4995686;28;20541;-82
2023/08/12 01:57:13;;;;;;;4.60;4.20;;;29.70;53.80;;;;;;5009137;28;20450;-84
2023/08/12 01:59:43;;;;;;;6.40;3.83;;;29.70;53.80;;;;;;5001872;28;20799;-82
2023/08/12 02:02:12;;;;;;;5.63;4.00;;;29.70;53.90;;;;;;4996164;28;20512;-83
2023/08/12 02:04:42;;;;;;;4.53;4.10;;;29.70;53.90;;;;;;4995236;28;20448;-81
2023/08/12 02:07:10;;;;;;;4.67;4.30;;;29.70;53.90;;;;;;4995616;28;20512;-83
2023/08/12 02:09:38;;;;;;;16.10;8.30;;;29.70;54.00;;;;;;4988430;28;20550;-82
2023/08/12 02:12:07;;;;;;;11.13;9.70;;;29.70;53.90;;;;;;4995611;28;20485;-82
2023/08/12 02:14:37;;;;;;;9.37;7.60;;;29.60;53.80;;;;;;4995026;28;20473;-83
2023/08/12 02:17:05;;;;;;;15.00;11.13;;;29.60;53.80;;;;;;4987622;28;20392;-82
2023/08/12 02:19:33;;;;;;;16.10;12.83;;;29.60;53.80;;;;;;4995855;28;20499;-82
2023/08/12 02:22:03;;;;;;;16.93;13.00;;;29.60;53.80;;;;;;4999055;28;20445;-82
2023/08/12 02:24:31;;;;;;;19.90;13.93;;;29.50;53.70;;;;;;4999760;28;20436;-82
2023/08/12 02:26:59;;;;;;;17.60;13.93;;;29.60;53.80;;;;;;4998201;28;20507;-82
2023/08/12 02:29:26;;;;;;;17.00;12.73;;;29.50;53.70;;;;;;4999213;28;20462;-83
2023/08/12 02:31:56;;;;;;;15.27;13.30;;;29.50;53.60;;;;;;4998678;28;20470;-82
2023/08/12 02:34:24;;;;;;;20.47;15.40;;;29.50;53.60;;;;;;4999232;28;20449;-81
2023/08/12 02:36:52;;;;;;;23.07;16.53;;;29.50;53.70;;;;;;4998580;28;20452;-82
2023/08/12 02:39:20;;;;;;;20.10;16.00;;;29.50;53.70;;;;;;5000004;28;20441;-81
2023/08/12 02:41:48;;;;;;;22.47;16.63;;;29.40;53.60;;;;;;4998409;28;20476;-81
2023/08/12 02:44:16;;;;;;;20.43;16.27;;;29.50;53.60;;;;;;4996413;28;20456;-82
2023/08/12 02:46:44;;;;;;;22.23;17.10;;;29.50;53.60;;;;;;4998899;28;20468;-82
2023/08/12 02:49:13;;;;;;;21.43;17.10;;;29.40;53.50;;;;;;4998410;28;20554;-82
2023/08/12 02:51:41;;;;;;;23.40;17.80;;;29.40;53.40;;;;;;4998699;28;20476;-82
2023/08/12 02:54:08;;;;;;;23.70;19.50;;;29.40;53.50;;;;;;4998549;28;20437;-82
2023/08/12 02:56:37;;;;;;;25.07;18.60;;;29.40;53.50;;;;;;4998718;28;20478;-82
2023/08/12 02:59:05;;;;;;;23.90;19.40;;;29.40;53.50;;;;;;4997979;28;20508;-82
2023/08/12 03:01:33;;;;;;;22.57;17.70;;;29.40;53.40;;;;;;4997180;28;20459;-81
2023/08/12 03:04:01;;;;;;;25.93;20.03;;;29.40;53.50;;;;;;4998364;28;20480;-82
2023/08/12 03:06:30;;;;;;;23.20;19.60;;;29.40;53.50;;;;;;4998969;28;20423;-81
2023/08/12 03:08:59;;;;;;;21.43;17.50;;;29.40;53.40;;;;;;4998425;28;20508;-82
2023/08/12 03:11:26;;;;;;;26.43;20.57;;;29.40;53.40;;;;;;4997654;28;20442;-81
2023/08/12 03:13:55;;;;;;;27.10;21.30;;;29.40;53.40;;;;;;4997952;28;20484;-81
2023/08/12 03:16:23;;;;;;;24.67;19.67;;;29.40;53.40;;;;;;4996874;28;20481;-82
2023/08/12 03:18:51;;;;;;;28.10;21.97;;;29.30;53.30;;;;;;4995483;28;20454;-82
2023/08/12 03:21:19;;;;;;;30.00;21.73;;;29.30;53.30;;;;;;4997383;28;20911;-81
2023/08/12 03:23:48;;;;;;;25.43;20.13;;;29.30;53.40;;;;;;4997140;28;20441;-81
2023/08/12 03:26:17;;;;;;;26.87;21.00;;;29.30;53.20;;;;;;4997515;28;20441;-82
2023/08/12 03:28:45;;;;;;;26.40;20.23;;;29.30;53.40;;;;;;4997878;28;20449;-81
2023/08/12 03:31:13;;;;;;;26.77;21.40;;;29.30;53.40;;;;;;4989670;28;20456;-82
2023/08/12 03:33:41;;;;;;;25.63;20.23;;;29.30;53.30;;;;;;4996562;28;20472;-82
2023/08/12 03:36:09;;;;;;;25.33;19.20;;;29.30;53.40;;;;;;4997033;28;20465;-79
2023/08/12 03:38:38;;;;;;;23.63;19.13;;;29.30;54.00;;;;;;4997412;28;20455;-79
2023/08/12 03:41:07;;;;;;;25.57;20.53;;;29.20;53.20;;;;;;4997302;28;20433;-80
2023/08/12 03:43:36;;;;;;;25.57;19.87;;;29.20;53.30;;;;;;4996965;28;20555;-80
2023/08/12 03:46:04;;;;;;;26.10;19.50;;;29.20;53.40;;;;;;4996849;28;20477;-79
2023/08/12 03:48:32;;;;;;;25.00;20.30;;;29.20;53.40;;;;;;4997212;28;20451;-80
2023/08/12 03:51:00;;;;;;;26.57;20.17;;;29.20;53.40;;;;;;4991683;28;20512;-80
2023/08/12 03:53:28;;;;;;;28.77;21.30;;;29.10;53.30;;;;;;4992355;28;20853;-80
2023/08/12 03:55:56;;;;;;;29.33;20.80;;;29.10;53.30;;;;;;4996908;28;20523;-80
2023/08/12 03:58:25;;;;;;;24.97;20.50;;;29.20;53.40;;;;;;4997359;28;20465;-80
2023/08/12 04:00:53;;;;;;;23.33;19.10;;;29.10;53.30;;;;;;4996915;28;20468;-80
2023/08/12 04:03:21;;;;;;;25.73;21.00;;;29.10;53.30;;;;;;4995521;28;20473;-80
2023/08/12 04:05:51;;;;;;;25.70;20.40;;;29.20;53.40;;;;;;4996874;28;20446;-80
2023/08/12 04:08:20;;;;;;;23.73;19.07;;;29.10;53.20;;;;;;4997328;28;20430;-80
2023/08/12 04:10:49;;;;;;;22.77;18.60;;;29.10;53.20;;;;;;4996602;28;20445;-80
2023/08/12 04:13:17;;;;;;;27.90;20.73;;;29.10;53.20;;;;;;4996716;28;20471;-80
2023/08/12 04:15:49;;;;;;;24.00;18.73;;;29.10;53.30;;;;;;4996694;28;20535;-80
2023/08/12 04:18:18;;;;;;;22.77;18.80;;;29.10;53.20;;;;;;4996186;28;20412;-80
2023/08/12 04:20:46;;;;;;;24.43;19.30;;;29.10;53.20;;;;;;4994684;28;20449;-79
2023/08/12 04:23:14;;;;;;;26.90;20.37;;;29.10;53.20;;;;;;4996799;28;20432;-80
2023/08/12 04:25:43;;;;;;;23.83;19.37;;;29.10;53.20;;;;;;4996708;28;20974;-80
2023/08/12 04:28:11;;;;;;;21.77;18.20;;;29.10;53.20;;;;;;4997062;28;20459;-80
2023/08/12 04:30:42;;;;;;;24.40;19.90;;;29.10;53.20;;;;;;4989782;28;20464;-80
2023/08/12 04:33:11;;;;;;;22.83;19.10;;;29.10;53.20;;;;;;4993620;28;20447;-80
2023/08/12 04:35:39;;;;;;;24.20;19.80;;;29.10;53.10;;;;;;4996136;28;20565;-80
2023/08/12 04:38:07;;;;;;;23.30;18.60;;;29.00;53.10;;;;;;4993164;28;20480;-80
2023/08/12 04:40:39;;;;;;;23.90;20.40;;;29.00;53.00;;;;;;4996589;28;20474;-80
2023/08/12 04:43:07;;;;;;;24.17;19.63;;;29.00;53.10;;;;;;4996488;28;20465;-80
2023/08/12 04:45:35;;;;;;;25.50;19.93;;;29.00;53.00;;;;;;4996539;28;20433;-79
2023/08/12 04:48:03;;;;;;;24.60;19.50;;;29.00;53.10;;;;;;4996699;28;20448;-80
2023/08/12 04:50:34;;;;;;;27.80;20.63;;;29.00;53.10;;;;;;4996578;28;20431;-80
2023/08/12 04:53:02;;;;;;;22.93;19.13;;;29.00;53.00;;;;;;4990902;28;20496;-80
2023/08/12 04:55:31;;;;;;;22.67;19.13;;;29.00;53.00;;;;;;4992019;28;20536;-80
2023/08/12 04:57:59;;;;;;;22.43;18.50;;;29.00;53.10;;;;;;4995974;28;20489;-80
2023/08/12 05:00:27;;;;;;;26.67;20.53;;;29.00;53.00;;;;;;4995436;28;20487;-80
2023/08/12 05:02:58;;;;;;;20.40;18.03;;;29.00;53.10;;;;;;4999552;28;20461;-79
2023/08/12 05:05:26;;;;;;;22.80;18.20;;;29.00;53.00;;;;;;5009708;28;20408;-80
2023/08/12 05:07:56;;;;;;;22.20;18.53;;;29.00;53.00;;;;;;5003781;28;20513;-80
2023/08/12 05:10:24;;;;;;;23.13;18.10;;;29.00;52.90;;;;;;4994699;28;20461;-80
2023/08/12 05:12:54;;;;;;;21.57;17.40;;;29.00;52.90;;;;;;4995470;28;20432;-79
2023/08/12 05:15:22;;;;;;;20.30;16.97;;;29.10;53.00;;;;;;4988524;28;20465;-80
2023/08/12 05:17:50;;;;;;;19.70;16.73;;;29.10;52.80;;;;;;4996127;28;20472;-79
2023/08/12 05:20:18;;;;;;;18.90;16.70;;;29.10;52.70;;;;;;4995576;28;20491;-79
2023/08/12 05:22:46;;;;;;;19.80;16.37;;;29.10;52.80;;;;;;4996154;28;20497;-79
2023/08/12 05:25:15;;;;;;;18.13;15.60;;;29.10;52.80;;;;;;4995507;28;20468;-79
2023/08/12 05:27:43;;;;;;;21.13;17.10;;;29.20;52.80;;;;;;4993848;28;20475;-80
2023/08/12 05:30:13;;;;;;;18.57;16.40;;;29.20;52.40;;;;;;4995701;28;20978;-80
2023/08/12 05:32:40;;;;;;;18.83;16.80;;;29.20;52.70;;;;;;4995328;28;20471;-79
2023/08/12 05:35:09;;;;;;;18.60;15.60;;;29.30;52.50;;;;;;4994862;28;20537;-79
2023/08/12 05:37:36;;;;;;;18.90;15.80;;;29.30;52.40;;;;;;4995995;28;20532;-80
2023/08/12 05:40:08;;;;;;;18.00;14.80;;;29.30;52.40;;;;;;4995999;28;20443;-79
2023/08/12 05:42:37;;;;;;;19.07;16.00;;;29.30;52.60;;;;;;4994917;28;20483;-80
2023/08/12 05:45:07;;;;;;;18.43;15.30;;;29.30;52.40;;;;;;4994932;28;20453;-79
2023/08/12 05:47:35;;;;;;;16.80;14.53;;;29.30;52.90;;;;;;4995229;28;20442;-79
2023/08/12 05:50:04;;;;;;;17.00;15.03;;;29.30;52.30;;;;;;4995210;28;20420;-79
2023/08/12 05:52:32;;;;;;;17.53;15.03;;;29.30;52.40;;;;;;4983710;28;20469;-79
2023/08/12 05:55:00;;;;;;;17.97;14.87;;;29.30;52.40;;;;;;4997287;28;20445;-79
2023/08/12 05:57:28;;;;;;;17.83;14.47;;;29.30;52.50;;;;;;4998963;28;20469;-79
2023/08/12 05:59:58;;;;;;;15.23;13.63;;;29.30;52.40;;;;;;4997351;28;20463;-79
2023/08/12 06:02:26;;;;;;;16.43;13.77;;;29.40;52.60;;;;;;4990801;28;20503;-79
2023/08/12 06:04:54;;;;;;;15.30;13.30;;;29.40;52.60;;;;;;4999405;28;20507;-79
2023/08/12 06:07:23;;;;;;;16.47;13.80;;;29.40;52.40;;;;;;4998914;28;20535;-79
2023/08/12 06:09:51;;;;;;;16.17;13.47;;;29.40;52.50;;;;;;4998085;28;20420;-79
2023/08/12 06:12:19;;;;;;;14.60;12.63;;;29.40;52.50;;;;;;4996100;28;20480;-78
2023/08/12 06:14:47;;;;;;;13.73;12.23;;;29.40;52.60;;;;;;4992049;28;20497;-79
2023/08/12 06:17:16;;;;;;;15.43;13.00;;;29.40;52.50;;;;;;4997214;28;20572;-79
2023/08/12 06:19:44;;;;;;;13.43;12.03;;;29.40;52.60;;;;;;4997056;28;20907;-78
2023/08/12 06:22:12;;;;;;;16.50;12.67;;;29.40;52.50;;;;;;4996797;28;20512;-79
2023/08/12 06:24:40;;;;;;;14.53;12.60;;;29.40;52.50;;;;;;4990572;28;20535;-78
2023/08/12 06:27:07;;;;;;;12.90;11.60;;;29.40;52.60;;;;;;4998066;28;20437;-79
2023/08/12 06:29:35;;;;;;;13.20;11.80;;;29.40;52.70;;;;;;4997948;28;20446;-79
2023/08/12 06:32:03;;;;;;;15.67;12.73;;;29.40;52.50;;;;;;4996869;28;20516;-79
2023/08/12 06:34:32;;;;;;;14.67;11.90;;;29.40;52.40;;;;;;4994774;28;20483;-79
2023/08/12 06:37:00;;;;;;;13.50;12.10;;;29.40;52.60;;;;;;4991536;28;20552;-78
2023/08/12 06:39:28;;;;;;;13.63;12.13;;;29.50;52.30;;;;;;4992491;28;20532;-79
2023/08/12 06:41:56;;;;;;;13.50;12.10;;;29.50;52.50;;;;;;4998091;28;20540;-78
2023/08/12 06:44:24;;;;;;;13.23;11.60;;;29.50;52.20;;;;;;4997833;28;20429;-78
2023/08/12 06:46:52;;;;;;;12.30;11.00;;;29.50;52.40;;;;;;4997274;28;20446;-78
2023/08/12 06:49:20;;;;;;;12.97;11.60;;;29.50;52.40;;;;;;4997530;28;20508;-79
2023/08/12 06:51:50;;;;;;;12.23;10.93;;;29.50;52.30;;;;;;4996300;28;20999;-78
2023/08/12 06:54:18;;;;;;;12.90;11.40;;;29.50;52.40;;;;;;4997946;28;20437;-79
2023/08/12 06:56:46;;;;;;;13.00;11.43;;;29.60;52.60;;;;;;4997697;28;20453;-79
2023/08/12 06:59:14;;;;;;;12.60;11.00;;;29.60;52.30;;;;;;4997780;28;20437;-78
2023/08/12 07:01:42;;;;;;;11.93;10.67;;;29.60;52.30;;;;;;4997466;28;20532;-79
2023/08/12 07:04:10;;;;;;;13.13;11.27;;;29.70;52.20;;;;;;4997227;28;20442;-79
2023/08/12 07:06:38;;;;;;;12.07;10.83;;;29.70;52.20;;;;;;4991745;28;20465;-78
2023/08/12 07:09:08;;;;;;;12.00;10.70;;;29.70;52.20;;;;;;4994351;28;20441;-78
2023/08/12 07:11:35;;;;;;;12.17;10.37;;;29.70;52.30;;;;;;4996926;28;20457;-79
2023/08/12 07:14:04;;;;;;;12.67;10.37;;;29.70;52.40;;;;;;4997624;28;20445;-78
2023/08/12 07:16:32;;;;;;;12.53;10.57;;;29.70;52.50;;;;;;4997406;28;20469;-79
2023/08/12 07:19:00;;;;;;;11.37;9.93;;;29.80;52.60;;;;;;4997038;28;20531;-79
2023/08/12 07:21:28;;;;;;;9.80;8.90;;;29.80;52.60;;;;;;4997159;28;20468;-77
2023/08/12 07:23:56;;;;;;;10.70;9.70;;;29.80;52.60;;;;;;4992088;28;20454;-78
2023/08/12 07:26:32;;;;;;;10.67;9.37;;;29.80;52.70;;;;;;4980807;28;20496;-79
2023/08/12 07:29:00;;;;;;;10.30;9.30;;;29.80;52.70;;;;;;4997152;28;20457;-79
2023/08/12 07:31:28;;;;;;;10.13;9.10;;;29.80;52.70;;;;;;4997702;28;20464;-79
2023/08/12 07:33:56;;;;;;;10.20;9.13;;;29.80;52.90;;;;;;4999438;28;20465;-79
2023/08/12 07:36:24;;;;;;;9.60;8.50;;;29.80;52.90;;;;;;5012674;28;20437;-79
2023/08/12 07:38:52;;;;;;;11.67;8.87;;;29.80;53.00;;;;;;4994120;28;20548;-79
2023/08/12 07:41:20;;;;;;;9.20;8.37;;;29.70;53.00;;;;;;4993741;28;20450;-78
2023/08/12 07:43:50;;;;;;;9.77;8.87;;;29.80;53.10;;;;;;5000727;28;20461;-79
2023/08/12 07:46:18;;;;;;;9.40;8.57;;;29.80;53.20;;;;;;4992714;28;20439;-79
2023/08/12 07:48:46;;;;;;;9.87;8.97;;;29.90;53.20;;;;;;4995238;28;20931;-79
2023/08/12 07:51:14;;;;;;;9.70;8.33;;;29.90;53.30;;;;;;5001807;28;20480;-78
2023/08/12 07:53:42;;;;;;;9.27;8.40;;;29.90;53.40;;;;;;5001722;28;20453;-79
2023/08/12 07:56:10;;;;;;;9.13;8.07;;;29.90;53.40;;;;;;5001087;28;20433;-79
2023/08/12 07:58:38;;;;;;;9.07;8.17;;;29.90;53.20;;;;;;5000861;28;20469;-79
2023/08/12 08:01:09;;;;;;;8.03;7.23;;;29.90;53.40;;;;;;4995060;28;20490;-79
2023/08/12 08:03:37;;;;;;;9.00;8.07;;;29.90;53.40;;;;;;5000844;28;20516;-79
2023/08/12 08:06:05;;;;;;;8.57;7.60;;;29.90;53.50;;;;;;4996390;28;20497;-79
2023/08/12 08:08:33;;;;;;;8.20;7.50;;;29.90;53.50;;;;;;4998791;28;20487;-78
2023/08/12 08:11:01;;;;;;;8.00;7.30;;;29.90;54.10;;;;;;4997268;28;20964;-78
2023/08/12 08:13:29;;;;;;;8.20;7.40;;;29.90;53.70;;;;;;4999445;28;20537;-78
2023/08/12 08:15:57;;;;;;;7.97;7.27;;;29.90;53.70;;;;;;4996724;28;20481;-78
2023/08/12 08:18:27;;;;;;;7.43;6.73;;;29.90;53.60;;;;;;4993315;28;20480;-78
2023/08/12 08:20:55;;;;;;;8.03;7.23;;;30.00;53.70;;;;;;4995952;28;20445;-79
2023/08/12 08:23:22;;;;;;;9.20;7.90;;;29.90;53.60;;;;;;4996361;28;20544;-78
2023/08/12 08:25:51;;;;;;;9.47;7.33;;;30.00;53.70;;;;;;4995521;28;20529;-78
2023/08/12 08:28:19;;;;;;;7.73;7.03;;;29.90;53.80;;;;;;4995283;28;20469;-78
2023/08/12 08:30:46;;;;;;;8.20;7.40;;;29.90;53.70;;;;;;4994285;28;20529;-78
2023/08/12 08:33:15;;;;;;;11.60;9.60;;;30.00;53.80;;;;;;4993227;28;20484;-77
2023/08/12 08:35:44;;;;;;;11.17;8.60;;;29.20;58.70;;;;;;4994310;28;20524;-77
2023/08/12 08:38:21;;;;;;;11.00;8.83;;;28.10;64.60;;;;;;5095834;27;20532;-79
2023/08/12 08:40:50;;;;;;;16.13;10.10;;;27.70;67.80;;;;;;5094148;28;20509;-78
2023/08/12 08:43:20;;;;;;;12.27;10.47;;;27.60;68.70;;;;;;5091595;28;20449;-79
2023/08/12 08:45:48;;;;;;;15.33;9.60;;;27.20;71.70;;;;;;5100858;28;20444;-78
2023/08/12 08:48:16;;;;;;;12.47;10.97;;;27.10;73.90;;;;;;5099320;28;20494;-78
2023/08/12 08:50:45;;;;;;;21.73;10.10;;;26.80;75.80;;;;;;5090976;28;20424;-79
2023/08/12 08:53:13;;;;;;;11.43;10.37;;;27.10;79.30;;;;;;5097188;28;20423;-79
2023/08/12 08:55:43;;;;;;;12.50;11.20;;;26.80;78.30;;;;;;5083682;28;20435;-79
2023/08/12 08:58:11;;;;;;;11.37;9.83;;;25.90;84.60;;;;;;5078062;28;20473;-79
2023/08/12 09:00:47;;;;;;;14.53;11.80;;;26.00;87.80;;;;;;5088806;28;20494;-79
2023/08/12 09:03:15;;;;;;;12.70;10.50;;;26.20;90.10;;;;;;5094929;28;20432;-79
2023/08/12 09:05:43;;;;;;;16.47;11.20;;;25.80;90.30;;;;;;5092869;28;20812;-79
2023/08/12 09:08:12;;;;;;;12.67;10.53;;;25.20;93.10;;;;;;5091368;28;20415;-78
2023/08/12 09:10:41;;;;;;;11.20;9.60;;;24.90;97.50;;;;;;5088286;28;20503;-79
2023/08/12 09:13:10;;;;;;;18.23;11.30;;;25.20;99.90;;;;;;5085985;28;20498;-79
2023/08/12 09:15:38;;;;;;;12.63;10.80;;;25.30;99.10;;;;;;5088117;28;20408;-78
2023/08/12 09:18:06;;;;;;;13.47;10.80;;;25.20;99.90;;;;;;5095304;28;20467;-77
2023/08/12 09:20:34;;;;;;;13.33;11.00;;;25.00;99.90;;;;;;5084436;28;20483;-79
2023/08/12 09:23:02;;;;;;;17.53;12.27;;;24.80;99.90;;;;;;5086024;28;20519;-78
2023/08/12 09:25:30;;;;;;;13.70;11.10;;;24.90;99.90;;;;;;5081859;28;20424;-79
2023/08/12 09:28:00;;;;;;;18.00;12.70;;;24.90;99.90;;;;;;5083287;28;20877;-77
2023/08/12 09:30:31;;;;;;;19.40;13.40;;;24.70;99.90;;;;;;5078639;28;20434;-77
2023/08/12 09:33:02;;;;;;;13.27;11.60;;;24.40;99.90;;;;;;5078650;28;20489;-78
2023/08/12 09:35:34;;;;;;;17.60;13.33;;;24.60;99.90;;;;;;5079942;28;20930;-78
2023/08/12 09:38:04;;;;;;;21.10;13.20;;;25.10;99.90;;;;;;5079051;28;20572;-77
2023/08/12 09:40:32;;;;;;;17.90;14.27;;;24.60;99.90;;;;;;5076128;28;20417;-77
2023/08/12 09:43:00;;;;;;;42.37;31.13;;;24.50;99.90;;;;;;5083722;28;20510;-76
2023/08/12 09:45:28;;;;;;;39.73;26.27;;;24.90;99.90;;;;;;5079020;28;20444;-77
2023/08/12 09:47:57;;;;;;;22.80;19.43;;;25.50;99.90;;;;;;5076520;28;20858;-77
2023/08/12 09:50:26;;;;;;;27.83;19.40;;;25.90;99.90;;;;;;5061246;28;20430;-78
2023/08/12 09:52:54;;;;;;;20.23;16.97;;;25.70;99.90;;;;;;5070733;28;20499;-77
2023/08/12 09:55:24;;;;;;;34.23;24.30;;;24.90;99.90;;;;;;5067350;28;20464;-77
2023/08/12 09:57:53;;;;;;;22.27;17.33;;;25.20;99.90;;;;;;5075918;28;20516;-77
2023/08/12 10:00:21;;;;;;;24.40;16.40;;;25.30;99.90;;;;;;5069292;28;20478;-77
2023/08/12 10:02:52;;;;;;;25.03;19.30;;;25.50;99.90;;;;;;5064089;28;20529;-77
2023/08/12 10:05:23;;;;;;;22.10;18.23;;;25.50;99.90;;;;;;5073157;28;20408;-77
2023/08/12 10:07:51;;;;;;;50.60;15.80;;;25.30;99.90;;;;;;5072385;28;20464;-81
2023/08/12 10:10:19;;;;;;;15.15;9.18;;;25.70;99.90;;;;;;5079016;28;20473;-78
2023/08/12 10:12:47;;;;;;;13.37;8.23;;;26.20;99.90;;;;;;5063211;28;20270;-78
2023/08/12 10:15:15;;;;;;;10.93;7.37;;;26.70;99.90;;;;;;5073590;28;20405;-83
2023/08/12 10:17:44;;;;;;;32.27;8.50;;;27.00;99.90;;;;;;5074570;28;20482;-78
2023/08/12 10:20:14;;;;;;;13.93;7.00;;;27.40;99.90;;;;;;5087740;28;20438;-78
2023/08/12 10:22:43;;;;;;;13.60;6.77;;;27.60;99.90;;;;;;5086780;28;20458;-78
2023/08/12 10:25:11;;;;;;;12.77;6.87;;;27.90;99.90;;;;;;5071623;28;20483;-79
2023/08/12 10:27:40;;;;;;;10.80;6.60;;;28.20;99.90;;;;;;5069479;28;20447;-79
2023/08/12 10:30:09;;;;;;;12.53;6.73;;;28.40;99.90;;;;;;5075013;28;20485;-81
2023/08/12 10:32:37;;;;;;;9.63;6.47;;;28.60;99.00;;;;;;5078405;28;20428;-79
2023/08/12 10:35:05;;;;;;;17.83;13.30;;;28.70;99.50;;;;;;5066658;28;20411;-80
2023/08/12 10:37:34;;;;;;;15.03;12.00;;;29.00;96.90;;;;;;5077935;28;20569;-83
2023/08/12 10:40:07;;;;;;;15.43;12.90;;;28.80;97.00;;;;;;5066538;28;20451;-80
2023/08/12 10:42:42;;;;;;;15.93;14.23;;;28.70;97.50;;;;;;5063263;28;20470;-79
2023/08/12 10:45:11;;;;;;;15.23;13.17;;;28.80;96.40;;;;;;5073996;28;20449;-80
2023/08/12 10:47:43;;;;;;;15.83;14.30;;;28.60;98.30;;;;;;5073311;28;20532;-81
2023/08/12 10:50:19;;;;;;;21.13;17.40;;;28.60;96.80;;;;;;5066992;28;20405;-80
2023/08/12 10:52:47;;;;;;;20.73;17.20;;;28.20;96.90;;;;;;5067697;28;20488;-79
2023/08/12 10:55:23;;;;;;;18.87;16.93;;;27.90;97.30;;;;;;5078252;28;20911;-80
2023/08/12 10:57:51;;;;;;;21.97;18.67;;;27.50;99.50;;;;;;5062845;28;20574;-80
2023/08/12 11:00:25;;;;;;;19.83;16.73;;;27.20;99.90;;;;;;5077301;28;20434;-80
2023/08/12 11:02:55;;;;;;;18.20;16.30;;;27.20;99.90;;;;;;5077640;28;20440;-79
2023/08/12 11:05:24;;;;;;;33.40;26.03;;;27.10;99.90;;;;;;5079638;28;20523;-80
2023/08/12 11:07:57;;;;;;;21.40;18.00;;;27.00;99.90;;;;;;5079111;28;20430;-81
2023/08/12 11:10:26;;;;;;;18.57;16.37;;;26.90;99.90;;;;;;5075987;28;20404;-81
2023/08/12 11:12:55;;;;;;;18.27;16.47;;;26.90;99.90;;;;;;5065600;28;20433;-79
2023/08/12 11:15:33;;;;;;;18.20;16.43;;;27.20;99.90;;;;;;5074543;28;20416;-79
2023/08/12 11:18:04;;;;;;;18.67;16.70;;;27.30;99.90;;;;;;5064226;28;20469;-81
2023/08/12 11:20:32;;;;;;;23.53;16.43;;;27.20;99.90;;;;;;5078717;28;20438;-78
2023/08/12 11:23:00;;;;;;;18.00;16.20;;;26.80;99.90;;;;;;5078777;28;20425;-77
2023/08/12 11:25:30;;;;;;;16.60;14.90;;;26.80;99.90;;;;;;5075477;28;20430;-78
2023/08/12 11:27:58;;;;;;;17.23;15.43;;;26.60;99.90;;;;;;5069266;28;20444;-79
2023/08/12 11:30:26;;;;;;;16.27;14.57;;;26.80;99.90;;;;;;5073461;28;20501;-80
2023/08/12 11:32:57;;;;;;;17.93;15.50;;;26.40;99.90;;;;;;5077151;28;20428;-79
2023/08/12 11:35:25;;;;;;;16.37;14.73;;;26.30;99.90;;;;;;5077190;28;20412;-78
2023/08/12 11:37:55;;;;;;;21.03;14.27;;;26.30;99.90;;;;;;5064998;28;21019;-77
2023/08/12 11:40:23;;;;;;;15.30;12.47;;;26.70;99.90;;;;;;5074202;28;20472;-77
2023/08/12 11:42:52;;;;;;;17.00;13.00;;;27.10;99.90;;;;;;5071383;28;21003;-77
2023/08/12 11:45:21;;;;;;;13.03;11.73;;;27.40;99.90;;;;;;5073442;28;20458;-77
2023/08/12 11:47:52;;;;;;;13.23;10.30;;;27.50;99.90;;;;;;5076514;28;20408;-79
2023/08/12 11:50:22;;;;;;;13.70;10.80;;;27.70;99.90;;;;;;5076147;28;20448;-78
2023/08/12 11:52:50;;;;;;;13.67;9.07;;;28.00;99.90;;;;;;5076668;28;20511;-80
2023/08/12 11:55:18;;;;;;;18.93;10.33;;;28.20;99.90;;;;;;5076965;28;20469;-79
2023/08/12 11:57:47;;;;;;;15.50;10.50;;;28.40;99.70;;;;;;5070382;28;20476;-80
2023/08/12 12:00:18;;;;;;;18.73;10.83;;;28.20;99.20;;;;;;5077766;28;20441;-79
2023/08/12 12:02:48;;;;;;;17.33;10.80;;;28.20;98.30;;;;;;5066636;28;20481;-81
2023/08/12 12:05:17;;;;;;;13.50;11.37;;;28.10;98.60;;;;;;5073147;28;20537;-80
2023/08/12 12:07:46;;;;;;;14.77;12.03;;;27.80;98.20;;;;;;5076775;28;20426;-78
2023/08/12 12:10:16;;;;;;;16.97;12.00;;;27.70;99.20;;;;;;5078319;28;20528;-79
2023/08/12 12:12:45;;;;;;;15.03;12.53;;;27.80;99.90;;;;;;5069780;28;20462;-80
2023/08/12 12:15:13;;;;;;;13.77;12.00;;;27.70;98.90;;;;;;5070714;28;20445;-78
2023/08/12 12:17:43;;;;;;;12.17;11.07;;;27.70;99.90;;;;;;5075539;28;20858;-79
2023/08/12 12:20:11;;;;;;;13.90;12.43;;;27.80;99.90;;;;;;5075117;28;20444;-80
2023/08/12 12:22:39;;;;;;;15.80;14.07;;;28.00;99.90;;;;;;5068997;28;20505;-79
2023/08/12 12:25:08;;;;;;;23.53;13.80;;;28.10;99.00;;;;;;5061866;28;20505;-81
2023/08/12 12:27:37;;;;;;;12.93;11.53;;;28.30;99.40;;;;;;5078519;28;20412;-79
2023/08/12 12:30:06;;;;;;;14.90;10.87;;;28.20;98.30;;;;;;5077980;28;20526;-82
2023/08/12 12:32:34;;;;;;;11.43;10.23;;;28.20;98.70;;;;;;5068826;28;20505;-79
2023/08/12 12:35:04;;;;;;;11.83;10.53;;;28.10;99.50;;;;;;5067441;28;20462;-80
2023/08/12 12:37:32;;;;;;;11.90;10.47;;;28.20;98.80;;;;;;5071769;28;20549;-80
2023/08/12 12:40:00;;;;;;;11.63;10.50;;;28.10;98.30;;;;;;5060226;28;20479;-81